sensor_id;sensor_type;location;lat;lon;timestamp;P1;durP1;ratioP1;P2;durP2;ratioP2
80411;SDS011;69749;42.684;23.360;2023-09-12T00:01:24;5.97;;;3.30;;
80411;SDS011;69749;42.684;23.360;2023-09-12T00:03:49;5.05;;;3.28;;
80411;SDS011;69749;42.684;23.360;2023-09-12T00:06:15;6.88;;;2.85;;
80411;SDS011;69749;42.684;23.360;2023-09-12T00:08:40;6.65;;;3.60;;
80411;SDS011;69749;42.684;23.360;2023-09-12T00:11:06;5.47;;;2.83;;
80411;SDS011;69749;42.684;23.360;2023-09-12T00:13:36;6.03;;;2.97;;
80411;SDS011;69749;42.684;23.360;2023-09-12T00:16:05;8.32;;;2.97;;
80411;SDS011;69749;42.684;23.360;2023-09-12T00:18:31;7.43;;;2.70;;
80411;SDS011;69749;42.684;23.360;2023-09-12T00:20:56;8.35;;;3.10;;
80411;SDS011;69749;42.684;23.360;2023-09-12T00:23:24;5.82;;;2.40;;
80411;SDS011;69749;42.684;23.360;2023-09-12T00:25:50;9.15;;;3.53;;
80411;SDS011;69749;42.684;23.360;2023-09-12T00:28:19;4.18;;;2.63;;
80411;SDS011;69749;42.684;23.360;2023-09-12T00:30:45;3.95;;;2.05;;
80411;SDS011;69749;42.684;23.360;2023-09-12T00:33:10;3.60;;;2.85;;
80411;SDS011;69749;42.684;23.360;2023-09-12T00:35:36;6.38;;;2.95;;
80411;SDS011;69749;42.684;23.360;2023-09-12T00:38:01;5.82;;;3.15;;
80411;SDS011;69749;42.684;23.360;2023-09-12T00:40:26;4.90;;;2.45;;
80411;SDS011;69749;42.684;23.360;2023-09-12T00:42:52;3.97;;;2.47;;
80411;SDS011;69749;42.684;23.360;2023-09-12T00:45:17;4.47;;;2.58;;
80411;SDS011;69749;42.684;23.360;2023-09-12T00:47:43;3.55;;;2.45;;
80411;SDS011;69749;42.684;23.360;2023-09-12T00:50:09;5.15;;;2.80;;
80411;SDS011;69749;42.684;23.360;2023-09-12T00:52:36;2.78;;;2.22;;
80411;SDS011;69749;42.684;23.360;2023-09-12T00:55:03;6.32;;;3.65;;
80411;SDS011;69749;42.684;23.360;2023-09-12T00:57:30;5.28;;;2.88;;
80411;SDS011;69749;42.684;23.360;2023-09-12T01:02:22;4.70;;;2.70;;
80411;SDS011;69749;42.684;23.360;2023-09-12T01:04:49;3.28;;;2.67;;
80411;SDS011;69749;42.684;23.360;2023-09-12T01:07:15;6.82;;;2.60;;
80411;SDS011;69749;42.684;23.360;2023-09-12T01:09:41;5.78;;;2.92;;
80411;SDS011;69749;42.684;23.360;2023-09-12T01:12:06;4.63;;;2.90;;
80411;SDS011;69749;42.684;23.360;2023-09-12T01:14:32;3.78;;;2.97;;
80411;SDS011;69749;42.684;23.360;2023-09-12T01:16:57;7.65;;;3.60;;
80411;SDS011;69749;42.684;23.360;2023-09-12T01:19:24;5.15;;;2.83;;
80411;SDS011;69749;42.684;23.360;2023-09-12T01:22:06;4.32;;;2.60;;
80411;SDS011;69749;42.684;23.360;2023-09-12T01:27:42;3.35;;;2.38;;
80411;SDS011;69749;42.684;23.360;2023-09-12T01:30:11;5.20;;;2.80;;
80411;SDS011;69749;42.684;23.360;2023-09-12T01:35:24;4.72;;;2.95;;
80411;SDS011;69749;42.684;23.360;2023-09-12T01:37:49;5.20;;;2.90;;
80411;SDS011;69749;42.684;23.360;2023-09-12T01:40:15;4.75;;;2.92;;
80411;SDS011;69749;42.684;23.360;2023-09-12T01:42:44;5.90;;;2.95;;
80411;SDS011;69749;42.684;23.360;2023-09-12T01:45:12;7.75;;;3.50;;
80411;SDS011;69749;42.684;23.360;2023-09-12T01:47:39;5.55;;;2.95;;
80411;SDS011;69749;42.684;23.360;2023-09-12T01:50:06;3.45;;;2.70;;
80411;SDS011;69749;42.684;23.360;2023-09-12T01:52:34;5.65;;;3.15;;
80411;SDS011;69749;42.684;23.360;2023-09-12T01:55:01;7.85;;;3.20;;
80411;SDS011;69749;42.684;23.360;2023-09-12T01:57:27;4.18;;;2.95;;
80411;SDS011;69749;42.684;23.360;2023-09-12T01:59:53;5.00;;;3.28;;
80411;SDS011;69749;42.684;23.360;2023-09-12T02:02:19;13.23;;;3.65;;
80411;SDS011;69749;42.684;23.360;2023-09-12T02:04:46;5.90;;;3.80;;
80411;SDS011;69749;42.684;23.360;2023-09-12T02:07:37;4.80;;;3.08;;
80411;SDS011;69749;42.684;23.360;2023-09-12T02:10:03;5.93;;;3.88;;
80411;SDS011;69749;42.684;23.360;2023-09-12T02:12:29;10.13;;;4.20;;
80411;SDS011;69749;42.684;23.360;2023-09-12T02:14:56;8.45;;;4.20;;
80411;SDS011;69749;42.684;23.360;2023-09-12T02:17:21;7.80;;;4.30;;
80411;SDS011;69749;42.684;23.360;2023-09-12T02:19:47;7.35;;;4.30;;
80411;SDS011;69749;42.684;23.360;2023-09-12T02:22:13;8.60;;;4.40;;
80411;SDS011;69749;42.684;23.360;2023-09-12T02:24:38;9.52;;;4.10;;
80411;SDS011;69749;42.684;23.360;2023-09-12T02:27:04;9.10;;;4.30;;
80411;SDS011;69749;42.684;23.360;2023-09-12T02:29:29;8.30;;;4.78;;
80411;SDS011;69749;42.684;23.360;2023-09-12T02:31:56;8.10;;;4.70;;
80411;SDS011;69749;42.684;23.360;2023-09-12T02:34:21;9.60;;;4.57;;
80411;SDS011;69749;42.684;23.360;2023-09-12T02:36:47;7.68;;;4.35;;
80411;SDS011;69749;42.684;23.360;2023-09-12T02:39:12;7.40;;;3.90;;
80411;SDS011;69749;42.684;23.360;2023-09-12T02:41:37;6.65;;;4.13;;
80411;SDS011;69749;42.684;23.360;2023-09-12T02:44:03;7.85;;;4.65;;
80411;SDS011;69749;42.684;23.360;2023-09-12T02:46:28;6.50;;;4.78;;
80411;SDS011;69749;42.684;23.360;2023-09-12T02:48:54;7.60;;;4.60;;
80411;SDS011;69749;42.684;23.360;2023-09-12T02:51:19;9.00;;;4.50;;
80411;SDS011;69749;42.684;23.360;2023-09-12T02:53:44;6.97;;;4.72;;
80411;SDS011;69749;42.684;23.360;2023-09-12T02:56:10;9.98;;;4.25;;
80411;SDS011;69749;42.684;23.360;2023-09-12T02:58:35;5.03;;;4.20;;
80411;SDS011;69749;42.684;23.360;2023-09-12T03:01:01;7.68;;;4.50;;
80411;SDS011;69749;42.684;23.360;2023-09-12T03:05:57;9.73;;;5.35;;
80411;SDS011;69749;42.684;23.360;2023-09-12T03:08:24;9.75;;;5.40;;
80411;SDS011;69749;42.684;23.360;2023-09-12T03:10:54;7.30;;;4.55;;
80411;SDS011;69749;42.684;23.360;2023-09-12T03:13:20;9.80;;;4.32;;
80411;SDS011;69749;42.684;23.360;2023-09-12T03:15:45;6.85;;;4.90;;
80411;SDS011;69749;42.684;23.360;2023-09-12T03:18:11;9.60;;;5.38;;
80411;SDS011;69749;42.684;23.360;2023-09-12T03:20:39;8.70;;;4.95;;
80411;SDS011;69749;42.684;23.360;2023-09-12T03:23:04;6.70;;;4.75;;
80411;SDS011;69749;42.684;23.360;2023-09-12T03:25:30;7.28;;;4.75;;
80411;SDS011;69749;42.684;23.360;2023-09-12T03:27:55;8.73;;;4.90;;
80411;SDS011;69749;42.684;23.360;2023-09-12T03:30:20;10.05;;;4.43;;
80411;SDS011;69749;42.684;23.360;2023-09-12T03:32:46;5.10;;;4.38;;
80411;SDS011;69749;42.684;23.360;2023-09-12T03:35:11;5.80;;;4.15;;
80411;SDS011;69749;42.684;23.360;2023-09-12T03:37:37;4.03;;;3.58;;
80411;SDS011;69749;42.684;23.360;2023-09-12T03:40:06;6.93;;;4.47;;
80411;SDS011;69749;42.684;23.360;2023-09-12T03:42:32;8.65;;;4.43;;
80411;SDS011;69749;42.684;23.360;2023-09-12T03:44:58;7.80;;;4.82;;
80411;SDS011;69749;42.684;23.360;2023-09-12T03:47:23;7.50;;;4.65;;
80411;SDS011;69749;42.684;23.360;2023-09-12T03:49:48;8.10;;;4.32;;
80411;SDS011;69749;42.684;23.360;2023-09-12T03:52:14;6.65;;;3.95;;
80411;SDS011;69749;42.684;23.360;2023-09-12T03:54:39;7.40;;;4.80;;
80411;SDS011;69749;42.684;23.360;2023-09-12T03:57:06;6.88;;;4.78;;
80411;SDS011;69749;42.684;23.360;2023-09-12T03:59:31;12.32;;;5.10;;
80411;SDS011;69749;42.684;23.360;2023-09-12T04:01:56;7.57;;;4.75;;
80411;SDS011;69749;42.684;23.360;2023-09-12T04:04:22;8.45;;;4.43;;
80411;SDS011;69749;42.684;23.360;2023-09-12T04:06:47;9.73;;;4.72;;
80411;SDS011;69749;42.684;23.360;2023-09-12T04:09:13;10.02;;;5.50;;
80411;SDS011;69749;42.684;23.360;2023-09-12T04:11:38;14.88;;;4.95;;
80411;SDS011;69749;42.684;23.360;2023-09-12T04:14:03;11.48;;;4.82;;
80411;SDS011;69749;42.684;23.360;2023-09-12T04:16:29;10.90;;;4.90;;
80411;SDS011;69749;42.684;23.360;2023-09-12T04:18:54;8.30;;;4.82;;
80411;SDS011;69749;42.684;23.360;2023-09-12T04:21:20;10.40;;;4.53;;
80411;SDS011;69749;42.684;23.360;2023-09-12T04:23:45;9.27;;;4.63;;
80411;SDS011;69749;42.684;23.360;2023-09-12T04:26:11;4.90;;;3.90;;
80411;SDS011;69749;42.684;23.360;2023-09-12T04:28:36;11.25;;;5.35;;
80411;SDS011;69749;42.684;23.360;2023-09-12T04:31:02;6.07;;;4.40;;
80411;SDS011;69749;42.684;23.360;2023-09-12T04:33:28;7.40;;;3.33;;
80411;SDS011;69749;42.684;23.360;2023-09-12T04:35:53;7.63;;;3.97;;
80411;SDS011;69749;42.684;23.360;2023-09-12T04:38:19;12.00;;;4.95;;
80411;SDS011;69749;42.684;23.360;2023-09-12T04:40:53;5.97;;;4.40;;
80411;SDS011;69749;42.684;23.360;2023-09-12T04:43:19;9.88;;;4.47;;
80411;SDS011;69749;42.684;23.360;2023-09-12T04:45:44;8.68;;;4.50;;
80411;SDS011;69749;42.684;23.360;2023-09-12T04:48:09;11.50;;;4.88;;
80411;SDS011;69749;42.684;23.360;2023-09-12T04:50:40;9.55;;;3.97;;
80411;SDS011;69749;42.684;23.360;2023-09-12T04:53:06;7.22;;;4.00;;
80411;SDS011;69749;42.684;23.360;2023-09-12T04:55:31;8.85;;;4.07;;
80411;SDS011;69749;42.684;23.360;2023-09-12T04:57:57;8.20;;;4.38;;
80411;SDS011;69749;42.684;23.360;2023-09-12T05:00:22;9.23;;;4.70;;
80411;SDS011;69749;42.684;23.360;2023-09-12T05:02:48;9.95;;;4.60;;
80411;SDS011;69749;42.684;23.360;2023-09-12T05:05:13;9.68;;;4.85;;
80411;SDS011;69749;42.684;23.360;2023-09-12T05:07:38;12.98;;;5.07;;
80411;SDS011;69749;42.684;23.360;2023-09-12T05:10:04;10.32;;;4.93;;
80411;SDS011;69749;42.684;23.360;2023-09-12T05:12:30;10.15;;;5.18;;
80411;SDS011;69749;42.684;23.360;2023-09-12T05:14:55;10.68;;;4.88;;
80411;SDS011;69749;42.684;23.360;2023-09-12T05:17:20;9.23;;;5.05;;
80411;SDS011;69749;42.684;23.360;2023-09-12T05:19:46;8.73;;;5.13;;
80411;SDS011;69749;42.684;23.360;2023-09-12T05:22:11;8.63;;;5.05;;
80411;SDS011;69749;42.684;23.360;2023-09-12T05:24:36;9.82;;;5.05;;
80411;SDS011;69749;42.684;23.360;2023-09-12T05:27:02;11.20;;;5.32;;
80411;SDS011;69749;42.684;23.360;2023-09-12T05:29:28;11.05;;;5.70;;
80411;SDS011;69749;42.684;23.360;2023-09-12T05:31:54;8.48;;;4.97;;
80411;SDS011;69749;42.684;23.360;2023-09-12T05:34:19;8.20;;;5.32;;
80411;SDS011;69749;42.684;23.360;2023-09-12T05:36:44;7.47;;;5.28;;
80411;SDS011;69749;42.684;23.360;2023-09-12T05:39:10;9.25;;;6.18;;
80411;SDS011;69749;42.684;23.360;2023-09-12T05:41:35;12.73;;;5.70;;
80411;SDS011;69749;42.684;23.360;2023-09-12T05:44:01;9.93;;;5.40;;
80411;SDS011;69749;42.684;23.360;2023-09-12T05:46:26;7.47;;;4.20;;
80411;SDS011;69749;42.684;23.360;2023-09-12T05:48:51;7.90;;;4.28;;
80411;SDS011;69749;42.684;23.360;2023-09-12T05:51:17;11.40;;;4.65;;
80411;SDS011;69749;42.684;23.360;2023-09-12T05:53:42;7.47;;;4.70;;
80411;SDS011;69749;42.684;23.360;2023-09-12T05:56:07;8.73;;;4.47;;
80411;SDS011;69749;42.684;23.360;2023-09-12T05:58:33;7.88;;;4.65;;
80411;SDS011;69749;42.684;23.360;2023-09-12T06:01:00;9.32;;;4.40;;
80411;SDS011;69749;42.684;23.360;2023-09-12T06:03:25;9.25;;;4.25;;
80411;SDS011;69749;42.684;23.360;2023-09-12T06:05:50;6.97;;;4.50;;
80411;SDS011;69749;42.684;23.360;2023-09-12T06:08:16;5.22;;;4.22;;
80411;SDS011;69749;42.684;23.360;2023-09-12T06:10:41;6.80;;;4.43;;
80411;SDS011;69749;42.684;23.360;2023-09-12T06:13:07;7.28;;;3.80;;
80411;SDS011;69749;42.684;23.360;2023-09-12T06:15:32;9.52;;;4.82;;
80411;SDS011;69749;42.684;23.360;2023-09-12T06:18:16;7.72;;;4.13;;
80411;SDS011;69749;42.684;23.360;2023-09-12T06:20:41;8.60;;;4.40;;
80411;SDS011;69749;42.684;23.360;2023-09-12T06:23:07;9.10;;;4.45;;
80411;SDS011;69749;42.684;23.360;2023-09-12T06:27:59;5.85;;;3.90;;
80411;SDS011;69749;42.684;23.360;2023-09-12T06:30:24;5.05;;;4.13;;
80411;SDS011;69749;42.684;23.360;2023-09-12T06:32:49;7.70;;;4.10;;
80411;SDS011;69749;42.684;23.360;2023-09-12T06:37:40;6.45;;;3.88;;
80411;SDS011;69749;42.684;23.360;2023-09-12T06:42:32;4.95;;;3.08;;
80411;SDS011;69749;42.684;23.360;2023-09-12T06:47:22;5.65;;;3.67;;
80411;SDS011;69749;42.684;23.360;2023-09-12T06:52:13;6.93;;;4.55;;
80411;SDS011;69749;42.684;23.360;2023-09-12T06:54:39;8.02;;;4.18;;
80411;SDS011;69749;42.684;23.360;2023-09-12T06:57:04;9.02;;;4.00;;
80411;SDS011;69749;42.684;23.360;2023-09-12T06:59:30;9.20;;;4.40;;
80411;SDS011;69749;42.684;23.360;2023-09-12T07:01:55;11.18;;;4.70;;
80411;SDS011;69749;42.684;23.360;2023-09-12T07:04:21;7.47;;;5.20;;
80411;SDS011;69749;42.684;23.360;2023-09-12T07:06:47;10.30;;;4.90;;
80411;SDS011;69749;42.684;23.360;2023-09-12T07:09:12;7.82;;;4.03;;
80411;SDS011;69749;42.684;23.360;2023-09-12T07:11:40;6.72;;;3.92;;
80411;SDS011;69749;42.684;23.360;2023-09-12T07:14:08;5.40;;;4.18;;
80411;SDS011;69749;42.684;23.360;2023-09-12T07:16:35;5.90;;;3.78;;
80411;SDS011;69749;42.684;23.360;2023-09-12T07:19:01;7.93;;;3.70;;
80411;SDS011;69749;42.684;23.360;2023-09-12T07:21:26;6.53;;;3.60;;
80411;SDS011;69749;42.684;23.360;2023-09-12T07:23:52;5.85;;;3.95;;
80411;SDS011;69749;42.684;23.360;2023-09-12T07:26:17;6.65;;;4.10;;
80411;SDS011;69749;42.684;23.360;2023-09-12T07:28:44;5.60;;;3.53;;
80411;SDS011;69749;42.684;23.360;2023-09-12T07:31:09;3.58;;;3.05;;
80411;SDS011;69749;42.684;23.360;2023-09-12T07:33:35;4.85;;;3.40;;
80411;SDS011;69749;42.684;23.360;2023-09-12T07:36:00;9.68;;;4.40;;
80411;SDS011;69749;42.684;23.360;2023-09-12T07:38:27;6.88;;;3.30;;
80411;SDS011;69749;42.684;23.360;2023-09-12T07:40:54;8.98;;;3.30;;
80411;SDS011;69749;42.684;23.360;2023-09-12T07:43:20;4.28;;;3.28;;
80411;SDS011;69749;42.684;23.360;2023-09-12T07:45:46;9.25;;;3.15;;
80411;SDS011;69749;42.684;23.360;2023-09-12T07:48:11;4.43;;;2.60;;
80411;SDS011;69749;42.684;23.360;2023-09-12T07:50:37;4.32;;;2.60;;
80411;SDS011;69749;42.684;23.360;2023-09-12T07:53:06;7.20;;;2.83;;
80411;SDS011;69749;42.684;23.360;2023-09-12T07:55:36;4.32;;;2.85;;
80411;SDS011;69749;42.684;23.360;2023-09-12T07:58:10;8.27;;;2.67;;
80411;SDS011;69749;42.684;23.360;2023-09-12T08:00:36;4.80;;;2.47;;
80411;SDS011;69749;42.684;23.360;2023-09-12T08:03:02;4.25;;;2.70;;
80411;SDS011;69749;42.684;23.360;2023-09-12T08:05:27;3.10;;;2.33;;
80411;SDS011;69749;42.684;23.360;2023-09-12T08:07:52;4.43;;;2.08;;
80411;SDS011;69749;42.684;23.360;2023-09-12T08:10:18;6.10;;;2.20;;
80411;SDS011;69749;42.684;23.360;2023-09-12T08:12:43;3.60;;;2.63;;
80411;SDS011;69749;42.684;23.360;2023-09-12T08:15:09;6.38;;;2.00;;
80411;SDS011;69749;42.684;23.360;2023-09-12T08:17:34;7.15;;;2.03;;
80411;SDS011;69749;42.684;23.360;2023-09-12T08:20:00;4.63;;;2.08;;
80411;SDS011;69749;42.684;23.360;2023-09-12T08:22:25;4.70;;;2.00;;
80411;SDS011;69749;42.684;23.360;2023-09-12T08:24:51;4.07;;;1.90;;
80411;SDS011;69749;42.684;23.360;2023-09-12T08:27:16;2.50;;;1.77;;
80411;SDS011;69749;42.684;23.360;2023-09-12T08:32:09;4.68;;;3.10;;
80411;SDS011;69749;42.684;23.360;2023-09-12T08:34:35;3.85;;;2.33;;
80411;SDS011;69749;42.684;23.360;2023-09-12T08:37:00;5.20;;;2.40;;
80411;SDS011;69749;42.684;23.360;2023-09-12T08:39:26;7.35;;;2.10;;
80411;SDS011;69749;42.684;23.360;2023-09-12T08:41:53;3.33;;;2.10;;
80411;SDS011;69749;42.684;23.360;2023-09-12T08:44:19;6.88;;;2.10;;
80411;SDS011;69749;42.684;23.360;2023-09-12T08:46:46;8.48;;;2.70;;
80411;SDS011;69749;42.684;23.360;2023-09-12T08:49:12;5.38;;;2.10;;
80411;SDS011;69749;42.684;23.360;2023-09-12T08:51:38;3.38;;;2.05;;
80411;SDS011;69749;42.684;23.360;2023-09-12T08:54:04;2.75;;;2.25;;
80411;SDS011;69749;42.684;23.360;2023-09-12T08:56:30;3.03;;;2.08;;
80411;SDS011;69749;42.684;23.360;2023-09-12T08:58:57;3.00;;;2.20;;
80411;SDS011;69749;42.684;23.360;2023-09-12T09:01:23;3.72;;;2.08;;
80411;SDS011;69749;42.684;23.360;2023-09-12T09:03:52;4.97;;;2.10;;
80411;SDS011;69749;42.684;23.360;2023-09-12T09:06:18;6.60;;;2.70;;
80411;SDS011;69749;42.684;23.360;2023-09-12T09:08:45;6.30;;;2.47;;
80411;SDS011;69749;42.684;23.360;2023-09-12T09:11:12;5.65;;;2.45;;
80411;SDS011;69749;42.684;23.360;2023-09-12T09:13:38;4.80;;;2.08;;
80411;SDS011;69749;42.684;23.360;2023-09-12T09:16:16;3.28;;;1.85;;
80411;SDS011;69749;42.684;23.360;2023-09-12T09:21:19;4.13;;;2.05;;
80411;SDS011;69749;42.684;23.360;2023-09-12T09:23:47;5.13;;;2.30;;
80411;SDS011;69749;42.684;23.360;2023-09-12T09:26:13;5.40;;;2.78;;
80411;SDS011;69749;42.684;23.360;2023-09-12T09:28:38;7.63;;;2.72;;
80411;SDS011;69749;42.684;23.360;2023-09-12T09:31:04;8.25;;;2.40;;
80411;SDS011;69749;42.684;23.360;2023-09-12T09:33:35;8.55;;;2.30;;
80411;SDS011;69749;42.684;23.360;2023-09-12T09:36:05;4.57;;;2.20;;
80411;SDS011;69749;42.684;23.360;2023-09-12T09:38:31;3.25;;;2.00;;
80411;SDS011;69749;42.684;23.360;2023-09-12T09:40:58;6.40;;;2.35;;
80411;SDS011;69749;42.684;23.360;2023-09-12T09:43:23;4.10;;;2.50;;
80411;SDS011;69749;42.684;23.360;2023-09-12T09:45:50;4.80;;;2.40;;
80411;SDS011;69749;42.684;23.360;2023-09-12T09:48:25;5.55;;;2.40;;
80411;SDS011;69749;42.684;23.360;2023-09-12T09:50:52;3.80;;;2.83;;
80411;SDS011;69749;42.684;23.360;2023-09-12T09:55:51;5.03;;;2.60;;
80411;SDS011;69749;42.684;23.360;2023-09-12T09:58:16;5.30;;;2.63;;
80411;SDS011;69749;42.684;23.360;2023-09-12T10:00:42;5.40;;;2.85;;
80411;SDS011;69749;42.684;23.360;2023-09-12T10:03:08;4.35;;;2.40;;
80411;SDS011;69749;42.684;23.360;2023-09-12T10:05:37;4.13;;;2.33;;
80411;SDS011;69749;42.684;23.360;2023-09-12T10:08:03;6.18;;;2.50;;
80411;SDS011;69749;42.684;23.360;2023-09-12T10:10:31;5.32;;;2.50;;
80411;SDS011;69749;42.684;23.360;2023-09-12T10:12:59;7.03;;;2.90;;
80411;SDS011;69749;42.684;23.360;2023-09-12T10:15:29;7.38;;;3.00;;
80411;SDS011;69749;42.684;23.360;2023-09-12T10:17:59;4.15;;;2.42;;
80411;SDS011;69749;42.684;23.360;2023-09-12T10:20:44;3.10;;;2.35;;
80411;SDS011;69749;42.684;23.360;2023-09-12T10:23:19;4.22;;;2.03;;
80411;SDS011;69749;42.684;23.360;2023-09-12T10:25:51;4.60;;;2.15;;
80411;SDS011;69749;42.684;23.360;2023-09-12T10:28:18;5.35;;;2.30;;
80411;SDS011;69749;42.684;23.360;2023-09-12T10:30:44;3.20;;;2.65;;
80411;SDS011;69749;42.684;23.360;2023-09-12T10:33:10;3.92;;;2.40;;
80411;SDS011;69749;42.684;23.360;2023-09-12T10:35:36;6.40;;;2.70;;
80411;SDS011;69749;42.684;23.360;2023-09-12T10:38:03;6.70;;;2.40;;
80411;SDS011;69749;42.684;23.360;2023-09-12T10:40:33;5.60;;;2.50;;
80411;SDS011;69749;42.684;23.360;2023-09-12T10:43:01;3.72;;;2.45;;
80411;SDS011;69749;42.684;23.360;2023-09-12T10:45:31;5.68;;;2.55;;
80411;SDS011;69749;42.684;23.360;2023-09-12T10:47:56;4.18;;;2.60;;
80411;SDS011;69749;42.684;23.360;2023-09-12T10:50:22;5.72;;;2.72;;
80411;SDS011;69749;42.684;23.360;2023-09-12T10:52:48;6.32;;;2.55;;
80411;SDS011;69749;42.684;23.360;2023-09-12T10:55:17;3.50;;;2.22;;
80411;SDS011;69749;42.684;23.360;2023-09-12T10:58:04;4.45;;;2.55;;
80411;SDS011;69749;42.684;23.360;2023-09-12T11:00:31;3.55;;;2.40;;
80411;SDS011;69749;42.684;23.360;2023-09-12T11:02:58;5.63;;;2.53;;
80411;SDS011;69749;42.684;23.360;2023-09-12T11:07:57;5.68;;;2.80;;
80411;SDS011;69749;42.684;23.360;2023-09-12T11:10:26;5.25;;;2.40;;
80411;SDS011;69749;42.684;23.360;2023-09-12T11:12:53;3.22;;;2.40;;
80411;SDS011;69749;42.684;23.360;2023-09-12T11:15:22;5.20;;;2.95;;
80411;SDS011;69749;42.684;23.360;2023-09-12T11:17:59;4.10;;;2.13;;
80411;SDS011;69749;42.684;23.360;2023-09-12T11:20:51;3.75;;;2.50;;
80411;SDS011;69749;42.684;23.360;2023-09-12T11:23:23;5.38;;;2.33;;
80411;SDS011;69749;42.684;23.360;2023-09-12T11:26:02;4.38;;;2.45;;
80411;SDS011;69749;42.684;23.360;2023-09-12T11:28:30;4.10;;;2.65;;
80411;SDS011;69749;42.684;23.360;2023-09-12T11:30:56;8.38;;;2.60;;
80411;SDS011;69749;42.684;23.360;2023-09-12T11:35:48;4.85;;;2.58;;
80411;SDS011;69749;42.684;23.360;2023-09-12T11:38:25;4.95;;;2.90;;
80411;SDS011;69749;42.684;23.360;2023-09-12T11:40:54;7.07;;;2.55;;
80411;SDS011;69749;42.684;23.360;2023-09-12T11:43:21;5.68;;;2.47;;
80411;SDS011;69749;42.684;23.360;2023-09-12T11:45:51;7.55;;;2.72;;
80411;SDS011;69749;42.684;23.360;2023-09-12T11:48:17;6.63;;;2.95;;
80411;SDS011;69749;42.684;23.360;2023-09-12T11:50:48;4.22;;;3.00;;
80411;SDS011;69749;42.684;23.360;2023-09-12T11:53:19;3.40;;;2.50;;
80411;SDS011;69749;42.684;23.360;2023-09-12T11:55:51;4.93;;;2.40;;
80411;SDS011;69749;42.684;23.360;2023-09-12T11:58:18;5.70;;;2.90;;
80411;SDS011;69749;42.684;23.360;2023-09-12T12:00:45;5.90;;;3.03;;
80411;SDS011;69749;42.684;23.360;2023-09-12T12:03:14;16.17;;;8.93;;
80411;SDS011;69749;42.684;23.360;2023-09-12T12:05:40;5.75;;;2.75;;
80411;SDS011;69749;42.684;23.360;2023-09-12T12:08:12;9.43;;;4.20;;
80411;SDS011;69749;42.684;23.360;2023-09-12T12:10:38;4.57;;;2.70;;
80411;SDS011;69749;42.684;23.360;2023-09-12T12:13:05;4.18;;;3.00;;
80411;SDS011;69749;42.684;23.360;2023-09-12T12:15:31;6.05;;;3.33;;
80411;SDS011;69749;42.684;23.360;2023-09-12T12:17:57;9.32;;;2.90;;
80411;SDS011;69749;42.684;23.360;2023-09-12T12:20:23;6.05;;;2.85;;
80411;SDS011;69749;42.684;23.360;2023-09-12T12:22:49;5.45;;;2.85;;
80411;SDS011;69749;42.684;23.360;2023-09-12T12:25:16;7.60;;;2.55;;
80411;SDS011;69749;42.684;23.360;2023-09-12T12:27:42;3.13;;;2.60;;
80411;SDS011;69749;42.684;23.360;2023-09-12T12:30:09;7.38;;;2.75;;
80411;SDS011;69749;42.684;23.360;2023-09-12T12:32:36;4.65;;;2.88;;
80411;SDS011;69749;42.684;23.360;2023-09-12T12:35:08;5.80;;;3.20;;
80411;SDS011;69749;42.684;23.360;2023-09-12T12:37:35;6.22;;;2.70;;
80411;SDS011;69749;42.684;23.360;2023-09-12T12:40:02;10.60;;;3.28;;
80411;SDS011;69749;42.684;23.360;2023-09-12T12:42:35;7.25;;;3.10;;
80411;SDS011;69749;42.684;23.360;2023-09-12T12:45:10;6.07;;;2.75;;
80411;SDS011;69749;42.684;23.360;2023-09-12T12:47:38;5.75;;;3.08;;
80411;SDS011;69749;42.684;23.360;2023-09-12T12:50:10;6.65;;;2.90;;
80411;SDS011;69749;42.684;23.360;2023-09-12T12:52:37;7.50;;;2.80;;
80411;SDS011;69749;42.684;23.360;2023-09-12T12:55:06;4.03;;;2.97;;
80411;SDS011;69749;42.684;23.360;2023-09-12T12:57:37;7.03;;;3.22;;
80411;SDS011;69749;42.684;23.360;2023-09-12T13:00:07;6.93;;;2.45;;
80411;SDS011;69749;42.684;23.360;2023-09-12T13:02:33;5.22;;;2.83;;
80411;SDS011;69749;42.684;23.360;2023-09-12T13:04:58;4.53;;;2.97;;
80411;SDS011;69749;42.684;23.360;2023-09-12T13:07:24;7.80;;;2.90;;
80411;SDS011;69749;42.684;23.360;2023-09-12T13:09:49;6.97;;;2.85;;
80411;SDS011;69749;42.684;23.360;2023-09-12T13:12:14;7.30;;;2.88;;
80411;SDS011;69749;42.684;23.360;2023-09-12T13:14:42;5.43;;;2.90;;
80411;SDS011;69749;42.684;23.360;2023-09-12T13:17:08;4.68;;;2.90;;
80411;SDS011;69749;42.684;23.360;2023-09-12T13:19:33;7.07;;;2.92;;
80411;SDS011;69749;42.684;23.360;2023-09-12T13:21:59;6.03;;;2.72;;
80411;SDS011;69749;42.684;23.360;2023-09-12T13:24:24;5.00;;;2.72;;
80411;SDS011;69749;42.684;23.360;2023-09-12T13:26:50;4.90;;;3.15;;
80411;SDS011;69749;42.684;23.360;2023-09-12T13:29:15;10.30;;;3.22;;
80411;SDS011;69749;42.684;23.360;2023-09-12T13:31:41;5.05;;;3.25;;
80411;SDS011;69749;42.684;23.360;2023-09-12T13:34:06;5.65;;;2.92;;
80411;SDS011;69749;42.684;23.360;2023-09-12T13:36:32;6.05;;;2.90;;
80411;SDS011;69749;42.684;23.360;2023-09-12T13:38:57;8.27;;;3.00;;
80411;SDS011;69749;42.684;23.360;2023-09-12T13:41:22;7.60;;;3.05;;
80411;SDS011;69749;42.684;23.360;2023-09-12T13:46:14;6.75;;;3.28;;
80411;SDS011;69749;42.684;23.360;2023-09-12T13:48:41;5.05;;;2.75;;
80411;SDS011;69749;42.684;23.360;2023-09-12T13:51:06;4.60;;;2.50;;
80411;SDS011;69749;42.684;23.360;2023-09-12T13:53:32;4.28;;;2.55;;
80411;SDS011;69749;42.684;23.360;2023-09-12T13:55:57;6.75;;;2.63;;
80411;SDS011;69749;42.684;23.360;2023-09-12T13:58:23;5.88;;;2.95;;
80411;SDS011;69749;42.684;23.360;2023-09-12T14:00:49;7.50;;;2.85;;
80411;SDS011;69749;42.684;23.360;2023-09-12T14:03:14;7.55;;;2.90;;
80411;SDS011;69749;42.684;23.360;2023-09-12T14:05:40;8.70;;;2.80;;
80411;SDS011;69749;42.684;23.360;2023-09-12T14:08:05;5.25;;;2.80;;
80411;SDS011;69749;42.684;23.360;2023-09-12T14:10:31;8.25;;;2.67;;
80411;SDS011;69749;42.684;23.360;2023-09-12T14:12:56;8.05;;;2.97;;
80411;SDS011;69749;42.684;23.360;2023-09-12T14:15:21;5.95;;;3.03;;
80411;SDS011;69749;42.684;23.360;2023-09-12T14:17:47;7.00;;;3.40;;
80411;SDS011;69749;42.684;23.360;2023-09-12T14:20:12;6.47;;;2.90;;
80411;SDS011;69749;42.684;23.360;2023-09-12T14:22:40;5.38;;;2.67;;
80411;SDS011;69749;42.684;23.360;2023-09-12T14:25:07;4.03;;;2.83;;
80411;SDS011;69749;42.684;23.360;2023-09-12T14:27:33;8.70;;;2.95;;
80411;SDS011;69749;42.684;23.360;2023-09-12T14:29:59;8.35;;;2.97;;
80411;SDS011;69749;42.684;23.360;2023-09-12T14:32:24;8.77;;;3.13;;
80411;SDS011;69749;42.684;23.360;2023-09-12T14:34:50;6.32;;;3.15;;
80411;SDS011;69749;42.684;23.360;2023-09-12T14:37:16;3.95;;;2.60;;
80411;SDS011;69749;42.684;23.360;2023-09-12T14:39:41;6.05;;;2.88;;
80411;SDS011;69749;42.684;23.360;2023-09-12T14:42:06;11.95;;;3.08;;
80411;SDS011;69749;42.684;23.360;2023-09-12T14:44:34;6.70;;;3.60;;
80411;SDS011;69749;42.684;23.360;2023-09-12T14:46:59;9.13;;;3.63;;
80411;SDS011;69749;42.684;23.360;2023-09-12T14:49:25;8.52;;;3.40;;
80411;SDS011;69749;42.684;23.360;2023-09-12T14:51:50;7.35;;;3.08;;
80411;SDS011;69749;42.684;23.360;2023-09-12T14:54:16;6.07;;;3.10;;
80411;SDS011;69749;42.684;23.360;2023-09-12T14:56:41;9.38;;;3.88;;
80411;SDS011;69749;42.684;23.360;2023-09-12T14:59:07;6.00;;;3.88;;
80411;SDS011;69749;42.684;23.360;2023-09-12T15:01:33;7.78;;;3.50;;
80411;SDS011;69749;42.684;23.360;2023-09-12T15:04:00;5.25;;;3.13;;
80411;SDS011;69749;42.684;23.360;2023-09-12T15:06:26;7.47;;;3.38;;
80411;SDS011;69749;42.684;23.360;2023-09-12T15:08:52;7.25;;;3.42;;